Main page
METAR-TAF:

METAR-TAF

Airports :

Orio al Serio International Airport

Bergamo, Italy

latitude: 45-40N, longitude: 009-42E, elevation: 238 m

Current weather observation

The report was made 38 minutes ago, at 13:50 UTC
Wind 3 kt from the South/Southeast, varying between East/Southeast and South
Temperature 17°C
Humidity 72%
Pressure 1027 hPa
Visibility 10 km or more
no clouds below 1500 m and no cumulonimbus

METAR: LIME 141350Z 16003KT 120V180 CAVOK 17/12 Q1027 NOSIG

Time: 15:28 (14:28 UTC)

Forecast

The report was made 3 hours and 28 minutes ago, at 11:00 UTC
Forecast valid from 14 at 12 UTC to 15 at 12 UTC
Wind 5 kt from variable directions
Visibility: 8000 m
Temporary
from 15 at 00 UTC to 15 at 03 UTC
Visibility: 2500 m
patches of fog
Temporary
from 15 at 03 UTC to 15 at 06 UTC
Visibility: 0500 m
Broken clouds at a height of 500 ft
fog

TAF: LIME 141100Z 1412/1512 VRB05KT 8000 NSC TEMPO 1500/1503 2500 BCFG TEMPO 1503/1506 0500 FG BKN005

Weather observations and forecasts of more than 4000 airports (METAR and TAF reports).

The available stations are represented by yellow and red dots on the map.

Hover mouse over dot to see the name of the station.

Then click to see weather observations and forecasts.

To change the map : click on the green buttons with a black cross to zoom in, on the green button with a dash to zoom out, or on the green arrows for adjacent maps.


METAR-TAF: